General Aviation Weather

Text Reports

Enter one or more of the following location identifiers separated by a space:

Zip Code, Four-Character ICAO or Three-Character IATA airport codes.

METAR - Aviation Routine Weather Report
ENRO - Roros Lufthavn,
Updated at 9:20 PM GMT on August 30, 2015 (11:20 PM CEST):
METAR ENRO 302120Z AUTO VRB02KT 9999NDV NSC 06/06 Q1017
TAF - Terminal Area Forecast
ENRO - Roros Lufthavn,
Updated at 9:20 PM GMT on August 30, 2015 (11:20 PM CEST):
TAF ENRO 302000Z NIL=

Decoded:
ID: ENRO   Roros Airport, NO
REPORT TIME: 28  5: 0
VALID TIME: 28 August AT 06:00Z to 28 August AT 15:00Z.
INITIAL WX
   WINDS: 250 AT 8
   WEATHER: -RA
   CLOUDS: 15 SCT
   CLOUDS: 25 BKN
TEMPORARY WX FROM 06Z TO 11Z
   VISIBILITY: 2.5 MILES
   WEATHER: RADZ_BR
   CLOUDS: 8 BKN
   COMMENTS: = 

CORRECTION
INITIAL WX
   WEATHER: KILM
   COMMENTS: 280608Z 2806/2906 04008KT P6SM SCT020 BKN100 
NEW WX STARTING: 09:00Z
   WINDS: 30 AT 7
   VISIBILITY: >6.0 MILES
   CLOUDS: 10 SCT
   CLOUDS: 25 BKN
NEW WX STARTING: 14:00Z
   WINDS: 40 AT 11
   VISIBILITY: >6.0 MILES
   CLOUDS: 25 SCT
   CLOUDS: 45 BKN
NEW WX STARTING: 19:00Z
   WINDS: 70 AT 12
   VISIBILITY: >6.0 MILES
   WEATHER: VCTS
   CLOUDS: 30 SCT WITH CB
   CLOUDS: 120 BKN
NEW WX STARTING: 02:00Z
   WINDS: 40 AT 6
   VISIBILITY: >6.0 MILES
   CLOUDS: 150 BKN
   COMMENTS: = 

CORRECTION
INITIAL WX
   WEATHER: KLBT
   COMMENTS: 280606Z 2806/2906 05006KT P6SM FEW030 SCT050 
NEW WX STARTING: 09:00Z
   WINDS: 50 AT 4
   VISIBILITY: 5.0 MILES
   WEATHER: BR
   CLOUDS: 5 SCT
   CLOUDS: 15 SCT
NEW WX STARTING: 13:00Z
   WINDS: 40 AT 9
   VISIBILITY: >6.0 MILES
   CLOUDS: 20 SCT
   CLOUDS: 50 SCT
NEW WX STARTING: 18:00Z
   WINDS: 70 AT 7
   VISIBILITY: >6.0 MILES
   WEATHER: VCTS
   CLOUDS: 20 SCT WITH CB
   CLOUDS: 50 BKN
NEW WX STARTING: 02:00Z
   WIND: VARIABLE AT 4
   VISIBILITY: >6.0 MILES
   CLOUDS: 250 FEW
   COMMENTS: = 

PIREP - Pilot Weather Report
ENRO - Roros Lufthavn,
Updated at 9:20 PM GMT on August 30, 2015 (11:20 PM CEST):
No PIREP is currently available for this location.
AIRMET - Airmens Meteorological Information
ENRO - Roros Lufthavn,
Updated at 9:20 PM GMT on August 30, 2015 (11:20 PM CEST):
No AIRMET is currently available for this location.
SIGMET - Significant Meteorological Information
ENRO - Roros Lufthavn,
Updated at 9:20 PM GMT on August 30, 2015 (11:20 PM CEST):
No SIGMET is currently available for this location.
NOTAM - Notice to Airmen
ENRO - Roros Lufthavn,
Updated at 9:20 PM GMT on August 30, 2015 (11:20 PM CEST):
No NOTAM is currently available for this location.
Forecast Area
ENRO - Roros Lufthavn,
Updated at 9:20 PM GMT on August 30, 2015 (11:20 PM CEST):
No NOTAM is currently available for this location.
Aviation Weather Maps